createdAt,value
2018-12-22T00:02:00.677Z,11.40
2018-12-22T00:04:29.047Z,11.40
2018-12-22T00:06:57.375Z,11.40
2018-12-22T00:09:25.823Z,11.30
2018-12-22T00:11:54.161Z,11.40
2018-12-22T00:14:22.641Z,11.40
2018-12-22T00:16:50.988Z,11.30
2018-12-22T00:19:19.301Z,11.30
2018-12-22T00:21:47.618Z,11.20
2018-12-22T00:24:15.966Z,11.20
2018-12-22T00:26:44.269Z,11.20
2018-12-22T00:29:12.604Z,11.20
2018-12-22T00:31:41.055Z,11.20
2018-12-22T00:34:09.489Z,11.30
2018-12-22T00:36:37.829Z,11.30
2018-12-22T00:39:07.043Z,11.30
2018-12-22T00:41:35.370Z,11.30
2018-12-22T00:44:03.675Z,11.30
2018-12-22T00:46:32.034Z,11.40
2018-12-22T00:49:00.393Z,11.30
2018-12-22T00:51:28.727Z,11.40
2018-12-22T00:53:57.061Z,11.30
2018-12-22T00:56:25.643Z,11.40
2018-12-22T00:58:53.942Z,11.40
2018-12-22T01:01:22.258Z,11.50
2018-12-22T01:03:50.599Z,11.40
2018-12-22T01:06:19.255Z,11.40
2018-12-22T01:08:47.559Z,11.50
2018-12-22T01:11:15.878Z,11.50
2018-12-22T01:13:44.206Z,11.50
2018-12-22T01:16:12.545Z,11.50
2018-12-22T01:18:40.891Z,11.50
2018-12-22T01:21:09.209Z,11.50
2018-12-22T01:23:37.523Z,11.40
2018-12-22T01:26:05.849Z,11.50
2018-12-22T01:28:39.329Z,11.50
2018-12-22T01:31:04.570Z,11.40
2018-12-22T01:33:32.874Z,11.40
2018-12-22T01:36:01.210Z,11.40
2018-12-22T01:38:29.562Z,11.40
2018-12-22T01:40:57.877Z,11.40
2018-12-22T01:43:26.193Z,11.40
2018-12-22T01:45:54.706Z,11.30
2018-12-22T01:48:23.021Z,11.30
2018-12-22T01:50:51.343Z,11.30
2018-12-22T01:53:20.092Z,11.30
2018-12-22T01:55:48.401Z,11.20
2018-12-22T01:58:16.779Z,11.20
2018-12-22T02:00:45.125Z,11.30
2018-12-22T02:03:13.458Z,11.30
2018-12-22T02:05:41.803Z,11.30
2018-12-22T02:08:10.242Z,11.30
2018-12-22T02:10:38.569Z,11.40
2018-12-22T02:13:06.891Z,11.30
2018-12-22T02:15:35.260Z,11.30
2018-12-22T02:18:03.593Z,11.30
2018-12-22T02:20:31.910Z,11.30
2018-12-22T02:23:00.269Z,11.30
2018-12-22T02:25:28.600Z,11.20
2018-12-22T02:28:04.532Z,11.20
2018-12-22T02:30:45.599Z,11.20
2018-12-22T02:33:13.937Z,11.20
2018-12-22T02:35:42.314Z,11.10
2018-12-22T02:38:10.673Z,11.20
2018-12-22T02:40:39.006Z,11.20
2018-12-22T02:43:07.321Z,11.20
2018-12-22T02:45:35.691Z,11.30
2018-12-22T02:48:04.131Z,11.20
2018-12-22T02:50:32.506Z,11.30
2018-12-22T02:53:00.860Z,11.30
2018-12-22T02:55:29.205Z,11.30
2018-12-22T02:57:57.554Z,11.40
2018-12-22T03:00:25.885Z,11.40
2018-12-22T03:02:54.257Z,11.50
2018-12-22T03:05:22.588Z,11.40
2018-12-22T03:07:51.318Z,11.40
2018-12-22T03:10:19.647Z,11.40
2018-12-22T03:12:47.962Z,11.40
2018-12-22T03:15:16.311Z,11.40
2018-12-22T03:17:44.647Z,11.40
2018-12-22T03:20:12.990Z,11.40
2018-12-22T03:22:41.398Z,11.50
2018-12-22T03:25:09.754Z,11.50
2018-12-22T03:27:38.202Z,11.50
2018-12-22T03:30:06.739Z,11.40
2018-12-22T03:32:35.170Z,11.50
2018-12-22T03:35:03.704Z,11.50
2018-12-22T03:37:32.036Z,11.40
2018-12-22T03:40:00.391Z,11.50
2018-12-22T03:42:28.703Z,11.50
2018-12-22T03:44:57.034Z,11.50
2018-12-22T03:47:25.376Z,11.40
2018-12-22T03:49:53.702Z,11.40
2018-12-22T03:52:22.075Z,11.40
2018-12-22T03:54:50.417Z,11.40
2018-12-22T03:57:18.749Z,11.40
2018-12-22T03:59:47.064Z,11.40
2018-12-22T04:02:15.419Z,11.40
2018-12-22T04:04:43.756Z,11.40
2018-12-22T04:07:12.082Z,11.40
2018-12-22T04:09:40.420Z,11.40
2018-12-22T04:12:08.735Z,11.40
2018-12-22T04:14:37.064Z,11.50
2018-12-22T04:17:05.402Z,11.40
2018-12-22T04:19:33.762Z,11.40
2018-12-22T04:22:02.078Z,11.40
2018-12-22T04:24:30.413Z,11.30
2018-12-22T04:26:58.732Z,11.40
2018-12-22T04:29:33.745Z,11.40
2018-12-22T04:31:57.530Z,11.30
2018-12-22T04:34:25.884Z,11.30
2018-12-22T04:36:54.195Z,11.40
2018-12-22T04:39:22.534Z,11.40
2018-12-22T04:41:50.894Z,11.40
2018-12-22T04:44:19.214Z,11.30
2018-12-22T04:46:47.535Z,11.30
2018-12-22T04:49:15.911Z,11.40
2018-12-22T04:51:44.915Z,11.40
2018-12-22T04:54:13.229Z,11.30
2018-12-22T04:56:41.570Z,11.30
2018-12-22T04:59:09.906Z,11.30
2018-12-22T05:01:38.252Z,11.30
2018-12-22T05:04:06.829Z,11.20
2018-12-22T05:06:35.175Z,11.20
2018-12-22T05:09:04.542Z,11.20
2018-12-22T05:11:32.886Z,11.30
2018-12-22T05:14:01.561Z,11.20
2018-12-22T05:16:29.867Z,11.20
2018-12-22T05:18:58.177Z,11.20
2018-12-22T05:21:26.509Z,11.20
2018-12-22T05:23:54.845Z,11.30
2018-12-22T05:26:23.155Z,11.30
2018-12-22T05:28:51.485Z,11.30
2018-12-22T05:31:19.814Z,11.30
2018-12-22T05:33:48.139Z,11.40
2018-12-22T05:36:16.475Z,11.30
2018-12-22T05:38:44.811Z,11.30
2018-12-22T05:41:13.138Z,11.30
2018-12-22T05:43:41.479Z,11.40
2018-12-22T05:46:09.832Z,11.30
2018-12-22T05:48:38.161Z,11.30
2018-12-22T05:51:07.210Z,11.30
2018-12-22T05:53:35.548Z,11.30
2018-12-22T05:56:03.959Z,11.30
2018-12-22T05:58:32.274Z,11.30
2018-12-22T06:01:00.715Z,11.30
2018-12-22T06:03:29.008Z,11.40
2018-12-22T06:05:57.381Z,11.40
2018-12-22T06:08:25.710Z,11.40
2018-12-22T06:10:54.057Z,11.40
2018-12-22T06:13:22.382Z,11.40
2018-12-22T06:15:50.714Z,11.40
2018-12-22T06:18:19.067Z,11.50
2018-12-22T06:20:47.370Z,11.40
2018-12-22T06:23:15.676Z,11.40
2018-12-22T06:25:44.029Z,11.30
2018-12-22T06:28:12.329Z,11.30
2018-12-22T06:30:40.676Z,11.30
2018-12-22T06:33:09.030Z,11.30
2018-12-22T06:35:37.337Z,11.40
2018-12-22T06:38:05.638Z,11.30
2018-12-22T06:40:33.973Z,11.30
2018-12-22T06:43:02.318Z,11.40
2018-12-22T06:45:30.642Z,11.50
2018-12-22T06:47:59.079Z,11.50
2018-12-22T06:50:27.389Z,11.60
2018-12-22T06:52:55.731Z,11.70
2018-12-22T06:55:24.068Z,11.70
2018-12-22T06:57:52.402Z,11.70
2018-12-22T07:00:20.708Z,11.70
2018-12-22T07:02:49.062Z,11.70
2018-12-22T07:05:17.354Z,11.80
2018-12-22T07:07:45.674Z,11.70
2018-12-22T07:10:14.008Z,11.80
2018-12-22T07:12:42.317Z,11.80
2018-12-22T07:15:10.655Z,11.70
2018-12-22T07:17:38.969Z,11.70
2018-12-22T07:20:07.481Z,11.70
2018-12-22T07:22:35.956Z,11.70
2018-12-22T07:25:04.561Z,11.70
2018-12-22T07:27:32.915Z,11.70
2018-12-22T07:30:01.243Z,11.70
2018-12-22T07:32:29.582Z,11.60
2018-12-22T07:34:57.910Z,11.60
2018-12-22T07:37:26.242Z,11.70
2018-12-22T07:39:54.559Z,11.70
2018-12-22T07:42:22.961Z,11.70
2018-12-22T07:44:51.315Z,11.70
2018-12-22T07:47:19.618Z,11.70
2018-12-22T07:49:47.929Z,11.70
2018-12-22T07:52:16.286Z,11.70
2018-12-22T07:54:44.663Z,11.70
2018-12-22T07:57:12.989Z,11.80
2018-12-22T07:59:41.322Z,11.80
2018-12-22T08:02:09.645Z,11.80
2018-12-22T08:04:37.950Z,11.90
2018-12-22T08:07:06.291Z,11.90
2018-12-22T08:09:34.647Z,11.90
2018-12-22T08:12:03.002Z,11.90
2018-12-22T08:14:31.347Z,11.90
2018-12-22T08:16:59.656Z,11.90
2018-12-22T08:19:27.989Z,11.90
2018-12-22T08:21:56.364Z,11.90
2018-12-22T08:24:24.705Z,11.90
2018-12-22T08:26:53.019Z,12.00
2018-12-22T08:29:21.600Z,11.90
2018-12-22T08:31:49.910Z,11.90
2018-12-22T08:34:18.221Z,12.00
2018-12-22T08:36:46.560Z,11.90
2018-12-22T08:39:15.379Z,12.00
2018-12-22T08:41:43.679Z,11.90
2018-12-22T08:44:12.269Z,12.00
2018-12-22T08:46:40.609Z,11.90
2018-12-22T08:49:08.923Z,11.90
2018-12-22T08:51:37.535Z,11.90
2018-12-22T08:54:06.023Z,11.90
2018-12-22T08:56:34.339Z,12.00
2018-12-22T08:59:02.841Z,12.00
2018-12-22T09:01:31.153Z,12.00
2018-12-22T09:03:59.498Z,12.00
2018-12-22T09:06:27.913Z,12.00
2018-12-22T09:08:56.279Z,12.00
2018-12-22T09:11:24.595Z,12.00
2018-12-22T09:13:52.935Z,11.90
2018-12-22T09:16:21.225Z,11.90
2018-12-22T09:18:49.650Z,11.90
2018-12-22T09:21:18.622Z,11.90
2018-12-22T09:23:46.995Z,11.80
2018-12-22T09:28:49.085Z,11.90
2018-12-22T09:31:17.459Z,12.00
2018-12-22T09:33:46.181Z,11.90
2018-12-22T09:36:14.490Z,11.90
2018-12-22T09:38:43.786Z,11.90
2018-12-22T09:41:12.679Z,11.90
2018-12-22T09:43:41.030Z,11.90
2018-12-22T09:46:09.334Z,11.90
2018-12-22T09:48:37.690Z,11.90
2018-12-22T09:51:11.260Z,11.90
2018-12-22T09:53:40.737Z,11.90
2018-12-22T09:56:09.063Z,11.90
2018-12-22T09:58:44.346Z,11.80
2018-12-22T10:01:14.451Z,11.80
2018-12-22T10:03:43.082Z,11.80
2018-12-22T10:06:13.022Z,11.80
2018-12-22T10:08:42.626Z,11.80
2018-12-22T10:11:10.946Z,11.80
2018-12-22T10:13:39.277Z,11.80
2018-12-22T10:16:08.259Z,11.80
2018-12-22T10:18:37.157Z,11.70
2018-12-22T10:21:05.689Z,11.30
2018-12-22T10:23:34.682Z,10.90
2018-12-22T10:26:03.310Z,10.60
2018-12-22T10:28:31.859Z,10.50
2018-12-22T10:31:00.269Z,10.50
2018-12-22T10:33:28.750Z,10.40
2018-12-22T10:35:57.101Z,10.40
2018-12-22T10:41:30.609Z,10.30
2018-12-22T10:44:01.463Z,10.30
2018-12-22T10:49:25.738Z,10.50
2018-12-22T10:51:54.264Z,10.80
2018-12-22T10:54:22.995Z,11.00
2018-12-22T10:56:51.326Z,11.10
2018-12-22T10:59:19.668Z,11.10
2018-12-22T11:01:48.015Z,11.10
2018-12-22T11:04:16.418Z,11.20
2018-12-22T11:06:44.814Z,11.20
2018-12-22T11:09:16.554Z,11.40
2018-12-22T11:11:45.437Z,11.50
2018-12-22T11:14:13.959Z,11.60
2018-12-22T11:16:42.322Z,11.60
2018-12-22T11:19:10.662Z,11.50
2018-12-22T11:21:39.323Z,11.60
2018-12-22T11:24:07.642Z,11.50
2018-12-22T11:26:36.329Z,11.60
2018-12-22T11:29:05.073Z,11.70
2018-12-22T11:31:35.156Z,12.00
2018-12-22T11:34:03.857Z,12.10
2018-12-22T11:36:32.166Z,12.10
2018-12-22T11:39:00.537Z,12.20
2018-12-22T11:41:28.913Z,12.20
2018-12-22T11:43:57.243Z,12.20
2018-12-22T11:46:25.733Z,12.20
2018-12-22T11:49:01.810Z,12.10
2018-12-22T11:51:30.107Z,12.00
2018-12-22T11:53:58.461Z,12.00
2018-12-22T11:56:26.754Z,12.00
2018-12-22T11:58:55.107Z,12.00
2018-12-22T12:01:23.416Z,12.00
2018-12-22T12:03:51.749Z,11.90
2018-12-22T12:06:20.039Z,11.90
2018-12-22T12:08:48.368Z,11.90
2018-12-22T12:11:16.694Z,11.90
2018-12-22T12:13:53.859Z,11.90
2018-12-22T12:17:32.685Z,11.90
2018-12-22T12:20:01.035Z,11.90
2018-12-22T12:22:29.405Z,12.00
2018-12-22T12:24:57.784Z,12.30
2018-12-22T12:27:26.077Z,12.40
2018-12-22T12:29:54.445Z,12.70
2018-12-22T12:32:22.796Z,12.90
2018-12-22T12:34:51.879Z,13.10
2018-12-22T12:37:20.174Z,13.30
2018-12-22T12:39:48.512Z,13.50
2018-12-22T12:42:16.803Z,13.70
2018-12-22T12:44:45.158Z,13.70
2018-12-22T12:47:14.234Z,13.80
2018-12-22T12:49:42.578Z,13.90
2018-12-22T12:52:10.876Z,13.80
2018-12-22T12:54:39.258Z,14.00
2018-12-22T12:57:07.661Z,14.00
2018-12-22T12:59:36.004Z,14.00
2018-12-22T13:02:06.773Z,14.10
2018-12-22T13:04:35.338Z,14.20
2018-12-22T13:07:03.621Z,14.00
2018-12-22T13:09:31.965Z,14.00
2018-12-22T13:12:07.150Z,13.90
2018-12-22T13:14:35.501Z,14.00
2018-12-22T13:17:03.826Z,14.00
2018-12-22T13:19:32.150Z,14.00
2018-12-22T13:22:00.445Z,13.90
2018-12-22T13:24:28.781Z,13.80
2018-12-22T13:26:57.142Z,13.90
2018-12-22T13:29:26.091Z,13.80
2018-12-22T13:31:54.989Z,13.80
2018-12-22T13:34:23.665Z,13.80
2018-12-22T13:36:52.054Z,13.90
2018-12-22T13:39:24.071Z,13.80
2018-12-22T13:41:52.483Z,13.80
2018-12-22T13:44:20.858Z,13.80
2018-12-22T13:46:49.226Z,13.80
2018-12-22T13:49:18.002Z,13.80
2018-12-22T13:51:47.265Z,13.70
2018-12-22T13:54:20.602Z,13.60
2018-12-22T13:56:49.203Z,13.50
2018-12-22T13:59:17.574Z,13.30
2018-12-22T14:01:52.570Z,13.20
2018-12-22T14:04:21.205Z,13.10
2018-12-22T14:06:49.715Z,13.10
2018-12-22T14:09:18.471Z,13.00
2018-12-22T14:11:47.827Z,12.90
2018-12-22T14:14:22.481Z,12.90
2018-12-22T14:16:55.741Z,12.90
2018-12-22T14:19:24.400Z,12.90
2018-12-22T14:21:53.635Z,12.90
2018-12-22T14:24:43.096Z,12.90
2018-12-22T14:27:11.631Z,12.80
2018-12-22T14:29:39.964Z,12.80
2018-12-22T14:32:08.471Z,12.70
2018-12-22T14:34:47.388Z,12.50
2018-12-22T14:37:13.706Z,12.50
2018-12-22T14:39:42.738Z,12.40
2018-12-22T14:42:11.227Z,12.30
2018-12-22T14:44:39.739Z,12.10
2018-12-22T14:47:08.331Z,12.10
2018-12-22T14:49:36.846Z,12.10
2018-12-22T14:52:05.354Z,11.90
2018-12-22T14:54:33.769Z,11.80
2018-12-22T14:57:02.218Z,11.70
2018-12-22T14:59:30.535Z,11.60
2018-12-22T15:02:00.979Z,11.50
2018-12-22T15:04:29.641Z,11.50
2018-12-22T15:06:58.947Z,11.50
2018-12-22T15:09:27.408Z,11.50
2018-12-22T15:11:56.350Z,11.40
2018-12-22T15:14:25.398Z,11.30
2018-12-22T15:16:53.981Z,11.30
2018-12-22T15:19:22.494Z,11.30
2018-12-22T15:21:56.539Z,11.20
2018-12-22T15:24:25.020Z,11.20
2018-12-22T15:26:53.718Z,11.10
2018-12-22T15:29:22.204Z,11.20
2018-12-22T15:31:50.825Z,11.10
2018-12-22T15:34:19.265Z,11.10
2018-12-22T15:36:47.759Z,11.00
2018-12-22T15:39:16.238Z,10.90
2018-12-22T15:41:44.618Z,10.90
2018-12-22T15:44:13.139Z,11.00
2018-12-22T15:46:41.640Z,11.00
2018-12-22T15:49:10.927Z,10.90
2018-12-22T15:51:39.482Z,10.80
2018-12-22T15:54:07.830Z,10.80
2018-12-22T15:56:36.164Z,10.80
2018-12-22T15:59:04.590Z,10.80
2018-12-22T16:01:32.960Z,10.70
2018-12-22T16:04:01.259Z,10.70
2018-12-22T16:06:29.666Z,10.70
2018-12-22T16:08:57.970Z,10.60
2018-12-22T16:11:26.458Z,10.60
2018-12-22T16:13:54.930Z,10.60
2018-12-22T16:16:23.292Z,10.60
2018-12-22T16:18:51.581Z,10.50
2018-12-22T16:21:19.987Z,10.40
2018-12-22T16:23:48.286Z,10.40
2018-12-22T16:26:16.733Z,10.40
2018-12-22T16:28:50.126Z,10.40
2018-12-22T16:31:18.764Z,10.30
2018-12-22T16:33:47.235Z,10.40
2018-12-22T16:36:15.602Z,10.20
2018-12-22T16:38:44.152Z,10.20
2018-12-22T16:41:12.628Z,10.30
2018-12-22T16:43:41.785Z,10.20
2018-12-22T16:46:10.229Z,10.20
2018-12-22T16:48:40.816Z,10.20
2018-12-22T16:51:09.294Z,10.20
2018-12-22T16:53:37.660Z,10.10
2018-12-22T16:56:06.301Z,10.20
2018-12-22T16:58:36.666Z,10.10
2018-12-22T17:01:15.211Z,10.10
2018-12-22T17:03:44.192Z,10.10
2018-12-22T17:06:16.657Z,10.00
2018-12-22T17:11:55.025Z,10.00
2018-12-22T17:14:42.019Z,9.90
2018-12-22T17:17:11.767Z,9.90
2018-12-22T17:19:40.758Z,9.90
2018-12-22T17:22:22.301Z,9.80
2018-12-22T17:24:55.666Z,9.90
2018-12-22T17:27:24.332Z,9.90
2018-12-22T17:29:53.546Z,9.90
2018-12-22T17:32:23.601Z,9.90
2018-12-22T17:34:52.641Z,9.90
2018-12-22T17:37:22.470Z,9.80
2018-12-22T17:39:53.475Z,9.90
2018-12-22T17:42:22.489Z,9.90
2018-12-22T17:44:50.834Z,9.90
2018-12-22T17:47:19.170Z,9.90
2018-12-22T17:49:47.471Z,9.80
2018-12-22T17:52:16.476Z,9.80
2018-12-22T17:54:46.651Z,9.80
2018-12-22T18:06:20.624Z,9.80
2018-12-22T18:08:49.113Z,9.80
2018-12-22T18:11:18.283Z,9.80
2018-12-22T18:13:46.785Z,9.80
2018-12-22T18:16:15.339Z,9.80
2018-12-22T18:18:43.942Z,9.80
2018-12-22T18:21:12.470Z,9.90
2018-12-22T18:23:40.819Z,9.80
2018-12-22T18:26:09.152Z,9.80
2018-12-22T18:28:39.098Z,10.00
2018-12-22T18:31:09.111Z,10.00
2018-12-22T18:33:39.832Z,10.00
2018-12-22T18:36:09.815Z,10.00
2018-12-22T18:38:38.408Z,10.10
2018-12-22T18:41:08.226Z,10.10
2018-12-22T18:43:43.056Z,10.20
2018-12-22T18:46:11.379Z,10.10
2018-12-22T18:48:39.743Z,10.00
2018-12-22T18:51:08.148Z,10.00
2018-12-22T18:53:36.496Z,9.90
2018-12-22T18:56:04.906Z,9.90
2018-12-22T18:58:33.258Z,9.90
2018-12-22T19:01:01.553Z,9.90
2018-12-22T19:03:29.961Z,9.90
2018-12-22T19:05:58.303Z,10.00
2018-12-22T19:08:26.832Z,10.00
2018-12-22T19:10:58.233Z,10.00
2018-12-22T19:13:26.803Z,10.00
2018-12-22T19:15:55.120Z,10.00
2018-12-22T19:18:23.486Z,10.00
2018-12-22T19:20:54.053Z,10.10
2018-12-22T19:23:24.801Z,10.00
2018-12-22T19:25:53.303Z,10.00
2018-12-22T19:28:21.672Z,10.00
2018-12-22T19:30:49.970Z,10.10
2018-12-22T19:33:18.364Z,10.10
2018-12-22T19:35:46.662Z,10.00
2018-12-22T19:38:17.062Z,10.00
2018-12-22T19:40:45.537Z,10.00
2018-12-22T19:43:13.843Z,10.00
2018-12-22T19:45:42.937Z,10.00
2018-12-22T19:48:11.287Z,10.10
2018-12-22T19:50:39.621Z,10.10
2018-12-22T19:53:07.937Z,10.10
2018-12-22T19:55:36.284Z,10.10
2018-12-22T19:58:04.643Z,10.10
2018-12-22T20:00:33.004Z,10.10
2018-12-22T20:03:01.382Z,10.10
2018-12-22T20:05:29.688Z,10.00
2018-12-22T20:07:58.176Z,10.00
2018-12-22T20:10:26.485Z,10.10
2018-12-22T20:12:54.814Z,10.10
2018-12-22T20:15:23.188Z,10.10
2018-12-22T20:17:51.518Z,10.10
2018-12-22T20:20:19.814Z,10.10
2018-12-22T20:22:48.299Z,10.20
2018-12-22T20:25:16.615Z,10.20
2018-12-22T20:27:44.985Z,10.20
2018-12-22T20:30:13.302Z,10.30
2018-12-22T20:32:41.677Z,10.30
2018-12-22T20:35:09.990Z,10.40
2018-12-22T20:37:38.355Z,10.40
2018-12-22T20:40:07.520Z,10.40
2018-12-22T20:42:35.853Z,10.30
2018-12-22T20:45:04.315Z,10.30
2018-12-22T20:47:32.662Z,10.40
2018-12-22T20:50:01.009Z,10.40
2018-12-22T20:52:29.484Z,10.30
2018-12-22T20:54:57.752Z,10.40
2018-12-22T20:57:26.207Z,10.40
2018-12-22T20:59:54.514Z,10.30
2018-12-22T21:02:22.864Z,10.20
2018-12-22T21:04:51.721Z,10.30
2018-12-22T21:07:20.074Z,10.20
2018-12-22T21:09:48.375Z,10.20
2018-12-22T21:12:24.941Z,10.20
2018-12-22T21:14:53.385Z,10.10
2018-12-22T21:17:22.314Z,10.10
2018-12-22T21:19:50.726Z,10.10
2018-12-22T21:22:19.611Z,10.00
2018-12-22T21:24:48.614Z,10.00
2018-12-22T21:27:16.932Z,9.90
2018-12-22T21:29:45.567Z,9.90
2018-12-22T21:32:13.879Z,9.90
2018-12-22T21:34:42.182Z,9.90
2018-12-22T21:37:10.587Z,9.90
2018-12-22T21:39:38.985Z,9.90
2018-12-22T21:42:07.324Z,9.80
2018-12-22T21:44:35.726Z,9.80
2018-12-22T21:47:04.183Z,9.80
2018-12-22T21:49:32.490Z,9.70
2018-12-22T21:52:00.916Z,9.70
2018-12-22T21:54:29.282Z,9.70
2018-12-22T21:56:57.826Z,9.70
2018-12-22T21:59:26.178Z,9.70
2018-12-22T22:01:54.557Z,9.70
2018-12-22T22:04:22.905Z,9.60
2018-12-22T22:06:51.293Z,9.60
2018-12-22T22:09:19.743Z,9.50
2018-12-22T22:11:48.061Z,9.50
2018-12-22T22:14:16.399Z,9.50
2018-12-22T22:16:44.748Z,9.50
2018-12-22T22:19:13.072Z,9.50
2018-12-22T22:21:41.711Z,9.50
2018-12-22T22:24:10.434Z,9.50
2018-12-22T22:26:38.841Z,9.50
2018-12-22T22:29:07.115Z,9.40
2018-12-22T22:31:35.764Z,9.40
2018-12-22T22:34:04.162Z,9.40
2018-12-22T22:36:32.461Z,9.40
2018-12-22T22:39:00.797Z,9.40
2018-12-22T22:41:29.120Z,9.50
2018-12-22T22:43:57.445Z,9.50
2018-12-22T22:46:25.758Z,9.40
2018-12-22T22:48:54.939Z,9.40
2018-12-22T22:51:23.273Z,9.40
2018-12-22T22:53:51.589Z,9.30
2018-12-22T22:56:19.879Z,9.20
2018-12-22T22:58:49.435Z,9.10
2018-12-22T23:01:17.883Z,9.20
2018-12-22T23:03:46.182Z,9.20
2018-12-22T23:06:14.518Z,9.20
2018-12-22T23:08:42.814Z,9.10
2018-12-22T23:11:11.106Z,9.20
2018-12-22T23:13:39.410Z,9.20
2018-12-22T23:16:07.700Z,9.20
2018-12-22T23:18:36.055Z,9.10
2018-12-22T23:21:04.429Z,9.10
2018-12-22T23:23:32.784Z,9.20
2018-12-22T23:26:01.076Z,9.30
2018-12-22T23:28:29.418Z,9.30
2018-12-22T23:30:57.825Z,9.40
2018-12-22T23:33:26.238Z,9.40
2018-12-22T23:35:54.631Z,9.40
2018-12-22T23:38:22.934Z,9.40
2018-12-22T23:40:52.262Z,9.50
2018-12-22T23:43:20.571Z,9.50
2018-12-22T23:45:48.904Z,9.50
2018-12-22T23:48:17.321Z,9.50
2018-12-22T23:50:45.613Z,9.50
2018-12-22T23:53:13.948Z,9.40
2018-12-22T23:55:42.278Z,9.40
2018-12-22T23:58:10.580Z,9.40
